Overview Statistics Trail Chart Weather Telemetry Raw packets
 

This is the latest recevied weather packets stored in our database for station/object OE1HTB-13. If no packets are shown the sender has not sent any weather packets the latest 10 day(s).

<< 35 36 37 38 39 >>
Time Temp. Humidity Pressure Rain* Wind** Luminosity Snow
1787737571 25° C 53% 1017.2 hPa 0 mm - 701 W/m² -
1787736671 24.44° C 55% 1017.3 hPa 0 mm - 689 W/m² -
1787735771 24.44° C 57% 1017.3 hPa 0 mm - 664 W/m² -
1787734871 23.89° C 56% 1017.3 hPa 0 mm - 656 W/m² -
1787733972 23.89° C 57% 1017.2 hPa 0 mm - 700 W/m² -
1787732171 21.67° C 64% 1017 hPa 0 mm - 315 W/m² -
1787731271 22.22° C 60% 1016.9 hPa 0 mm - 640 W/m² -
1787730370 21.67° C 65% 1016.8 hPa 0 mm - 559 W/m² -
1787729470 19.44° C 71% 1016.8 hPa 0 mm - 545 W/m² -
1787728570 18.89° C 72% 1016.6 hPa 0 mm - 207 W/m² -
1787727670 19.44° C 71% 1016.5 hPa 0 mm - 243 W/m² -
1787726774 18.33° C 74% 1016.5 hPa 0 mm - 193 W/m² -
1787725874 17.22° C 77% 1016.4 hPa 0 mm - 225 W/m² -
1787724974 16.67° C 78% 1016.3 hPa 0 mm - 121 W/m² -
1787724074 16.67° C 79% 1016.3 hPa 0 mm - 93 W/m² -
1787723174 16.67° C 80% 1016.3 hPa 0 mm - 72 W/m² -
1787722274 16.67° C 81% 1016.2 hPa 0 mm - 60 W/m² -
1787721374 16.11° C 81% 1016.2 hPa 0 mm - 44 W/m² -
1787720475 16.11° C 81% 1016.1 hPa 0 mm - 30 W/m² -
1787719574 16.11° C 81% 1015.8 hPa 0 mm - 19 W/m² -
1787718674 16.11° C 81% 1015.8 hPa 0 mm - 11 W/m² -
1787717773 16.11° C 81% 1015.8 hPa 0 mm - 0 W/m² -
1787716873 16.11° C 81% 1015.7 hPa 0 mm - 0 W/m² -
1787715973 16.11° C 81% 1015.7 hPa 0 mm - 0 W/m² -
1787715075 16.11° C 80% 1015.6 hPa 0 mm - 0 W/m² -

* Rain latest hour (hover to see other rain measurements)
** Current wind speed in m/s (hover to see current wind gust speed)